createdAt,value
2022-11-13T00:01:18.406Z,100089.44
2022-11-13T00:03:45.388Z,100090.19
2022-11-13T00:06:13.305Z,100086.31
2022-11-13T00:08:40.109Z,100085.66
2022-11-13T00:11:12.696Z,100082.25
2022-11-13T00:13:39.467Z,100077.50
2022-11-13T00:16:09.732Z,100087.69
2022-11-13T00:18:36.959Z,100084.41
2022-11-13T00:21:16.856Z,100082.53
2022-11-13T00:23:43.683Z,100081.09
2022-11-13T00:26:13.920Z,100082.94
2022-11-13T00:28:40.421Z,100067.25
2022-11-13T00:31:08.984Z,100056.63
2022-11-13T00:34:02.374Z,100056.44
2022-11-13T00:36:26.548Z,100052.97
2022-11-13T00:38:54.080Z,100056.31
2022-11-13T00:41:21.079Z,100056.13
2022-11-13T00:43:47.552Z,100050.88
2022-11-13T00:46:15.589Z,100052.84
2022-11-13T00:48:42.095Z,100051.94
2022-11-13T00:51:08.675Z,100055.44
2022-11-13T00:53:35.312Z,100066.16
2022-11-13T00:56:01.843Z,100059.38
2022-11-13T00:58:28.797Z,100056.22
2022-11-13T01:00:55.926Z,100056.13
2022-11-13T01:03:22.390Z,100052.69
2022-11-13T01:05:48.950Z,100062.91
2022-11-13T01:08:16.379Z,100054.03
2022-11-13T01:10:53.116Z,100050.81
2022-11-13T01:13:20.698Z,100061.47
2022-11-13T01:15:47.243Z,100056.97
2022-11-13T01:18:13.891Z,100055.25
2022-11-13T01:20:40.640Z,100059.56
2022-11-13T01:23:07.179Z,100044.53
2022-11-13T01:25:33.926Z,100048.91
2022-11-13T01:28:03.746Z,100052.28
2022-11-13T01:30:30.281Z,100041.78
2022-11-13T01:32:56.720Z,100038.16
2022-11-13T01:35:23.265Z,100041.63
2022-11-13T01:37:49.711Z,100048.69
2022-11-13T01:40:16.508Z,100041.31
2022-11-13T01:42:46.131Z,100039.44
2022-11-13T01:45:50.299Z,100035.97
2022-11-13T01:48:16.780Z,100035.13
2022-11-13T01:50:43.314Z,100030.97
2022-11-13T01:53:10.104Z,100029.63
2022-11-13T01:55:36.836Z,100034.06
2022-11-13T01:58:06.050Z,100026.16
2022-11-13T02:00:32.585Z,100029.31
2022-11-13T02:02:59.138Z,100026.63
2022-11-13T02:05:25.630Z,100024.28
2022-11-13T02:07:52.276Z,100013.63
2022-11-13T02:10:18.817Z,100008.38
2022-11-13T02:12:50.235Z,100015.47
2022-11-13T02:15:18.744Z,100012.00
2022-11-13T02:17:50.298Z,100001.25
2022-11-13T02:20:25.444Z,99997.06
2022-11-13T02:22:54.659Z,99999.69
2022-11-13T02:25:22.176Z,100001.25
2022-11-13T02:27:50.512Z,99998.84
2022-11-13T02:30:26.486Z,99997.53
2022-11-13T02:32:55.048Z,100000.53
2022-11-13T02:35:26.563Z,99993.69
2022-11-13T02:37:54.839Z,99996.56
2022-11-13T02:40:21.484Z,99993.16
2022-11-13T02:42:47.939Z,99986.03
2022-11-13T02:45:14.606Z,99987.81
2022-11-13T02:47:41.101Z,99990.97
2022-11-13T02:50:10.220Z,99987.97
2022-11-13T02:52:37.000Z,99996.09
2022-11-13T02:55:04.458Z,99993.53
2022-11-13T02:57:31.088Z,99985.72
2022-11-13T02:59:57.770Z,99986.16
2022-11-13T03:02:24.305Z,99991.56
2022-11-13T03:05:11.396Z,99982.31
2022-11-13T03:07:37.324Z,99977.63
2022-11-13T03:10:04.209Z,99980.34
2022-11-13T03:12:30.833Z,99975.00
2022-11-13T03:14:57.361Z,99978.69
2022-11-13T03:17:23.828Z,99979.28
2022-11-13T03:19:50.438Z,99971.63
2022-11-13T03:22:16.970Z,99970.88
2022-11-13T03:24:46.816Z,99970.06
2022-11-13T03:27:13.268Z,99969.72
2022-11-13T03:29:39.770Z,99968.00
2022-11-13T03:32:06.405Z,99958.69
2022-11-13T03:34:32.875Z,99963.19
2022-11-13T03:36:59.360Z,99963.81
2022-11-13T03:39:26.311Z,99964.81
2022-11-13T03:41:52.809Z,99966.94
2022-11-13T03:44:19.308Z,99969.78
2022-11-13T03:46:45.845Z,99969.09
2022-11-13T03:49:12.467Z,99970.72
2022-11-13T03:51:38.975Z,99968.28
2022-11-13T03:54:05.518Z,99966.66
2022-11-13T03:56:32.092Z,99969.28
2022-11-13T03:58:58.574Z,99963.03
2022-11-13T04:01:25.146Z,99963.84
2022-11-13T04:03:51.663Z,99965.72
2022-11-13T04:06:18.165Z,99967.06
2022-11-13T04:08:44.623Z,99960.03
2022-11-13T04:11:12.898Z,99959.22
2022-11-13T04:13:39.609Z,99947.16
2022-11-13T04:16:06.316Z,99945.81
2022-11-13T04:18:33.107Z,99939.88
2022-11-13T04:21:04.938Z,99941.19
2022-11-13T04:23:31.592Z,99943.03
2022-11-13T04:25:58.333Z,99947.34
2022-11-13T04:28:24.975Z,99945.56
2022-11-13T04:30:54.586Z,99943.88
2022-11-13T04:33:21.409Z,99948.53
2022-11-13T04:35:48.504Z,99939.03
2022-11-13T04:38:15.607Z,99947.09
2022-11-13T04:40:43.100Z,99940.22
2022-11-13T04:43:09.774Z,99934.13
2022-11-13T04:45:36.953Z,99936.75
2022-11-13T04:48:03.721Z,99929.63
2022-11-13T04:50:30.340Z,99930.00
2022-11-13T04:52:56.899Z,99931.69
2022-11-13T04:55:23.441Z,99931.59
2022-11-13T04:57:51.703Z,99920.16
2022-11-13T05:00:18.512Z,99922.59
2022-11-13T05:02:45.015Z,99924.31
2022-11-13T05:05:11.506Z,99920.94
2022-11-13T05:07:38.077Z,99921.84
2022-11-13T05:10:05.553Z,99920.66
2022-11-13T05:12:31.985Z,99920.81
2022-11-13T05:14:58.517Z,99912.28
2022-11-13T05:17:24.959Z,99915.06
2022-11-13T05:19:51.536Z,99910.09
2022-11-13T05:22:17.985Z,99908.03
2022-11-13T05:24:44.596Z,99903.69
2022-11-13T05:27:16.010Z,99903.50
2022-11-13T05:29:43.759Z,99903.81
2022-11-13T05:32:10.297Z,99892.31
2022-11-13T05:34:36.989Z,99902.72
2022-11-13T05:37:03.475Z,99890.44
2022-11-13T05:39:29.964Z,99885.00
2022-11-13T05:41:56.468Z,99894.13
2022-11-13T05:44:22.965Z,99891.00
2022-11-13T05:46:49.478Z,99879.06
2022-11-13T05:49:15.967Z,99885.41
2022-11-13T05:51:42.478Z,99876.53
2022-11-13T05:54:08.937Z,99881.94
2022-11-13T05:56:36.704Z,99883.88
2022-11-13T05:59:04.432Z,99877.03
2022-11-13T06:01:37.007Z,99882.53
2022-11-13T06:04:04.583Z,99884.91
2022-11-13T06:06:31.704Z,99884.59
2022-11-13T06:09:00.646Z,99876.41
2022-11-13T06:11:29.241Z,99877.66
2022-11-13T06:13:57.222Z,99881.69
2022-11-13T06:16:27.033Z,99880.44
2022-11-13T06:18:58.942Z,99870.22
2022-11-13T06:21:29.756Z,99870.78
2022-11-13T06:24:00.624Z,99874.34
2022-11-13T06:26:33.174Z,99880.22
2022-11-13T06:29:01.485Z,99869.06
2022-11-13T06:31:30.993Z,99875.19
2022-11-13T06:34:00.429Z,99879.66
2022-11-13T06:36:30.109Z,99872.09
2022-11-13T06:38:56.807Z,99872.22
2022-11-13T06:41:26.014Z,99872.22
2022-11-13T06:43:53.317Z,99872.81
2022-11-13T06:46:23.451Z,99867.63
2022-11-13T06:48:50.694Z,99873.09
2022-11-13T06:51:27.160Z,99870.06
2022-11-13T06:53:54.106Z,99880.13
2022-11-13T06:56:21.467Z,99872.94
2022-11-13T06:58:47.981Z,99869.94
2022-11-13T07:01:20.902Z,99869.59
2022-11-13T07:03:47.710Z,99874.63
2022-11-13T07:06:24.444Z,99879.06
2022-11-13T07:08:51.754Z,99876.25
2022-11-13T07:11:21.172Z,99869.91
2022-11-13T07:13:48.292Z,99872.47
2022-11-13T07:16:17.803Z,99865.31
2022-11-13T07:18:50.376Z,99864.84
2022-11-13T07:21:17.254Z,99871.72
2022-11-13T07:23:43.821Z,99872.06
2022-11-13T07:26:13.736Z,99869.31
2022-11-13T07:28:40.567Z,99874.72
2022-11-13T07:31:07.539Z,99865.50
2022-11-13T07:33:34.582Z,99871.63
2022-11-13T07:36:01.350Z,99857.31
2022-11-13T07:38:28.168Z,99866.34
2022-11-13T07:40:54.949Z,99858.16
2022-11-13T07:43:21.491Z,99857.69
2022-11-13T07:45:54.281Z,99855.72
2022-11-13T07:48:24.497Z,99850.41
2022-11-13T07:50:51.476Z,99851.66
2022-11-13T07:53:19.282Z,99853.97
2022-11-13T07:55:46.326Z,99849.91
2022-11-13T07:58:12.891Z,99854.16
2022-11-13T08:00:40.158Z,99854.88
2022-11-13T08:03:08.925Z,99852.47
2022-11-13T08:05:35.530Z,99847.00
2022-11-13T08:08:02.078Z,99843.81
2022-11-13T08:10:28.905Z,99858.97
2022-11-13T08:13:04.154Z,99854.81
2022-11-13T08:15:31.713Z,99855.06
2022-11-13T08:17:59.891Z,99863.09
2022-11-13T08:20:28.023Z,99855.34
2022-11-13T08:23:02.269Z,99845.06
2022-11-13T08:25:29.956Z,99862.72
2022-11-13T08:27:57.340Z,99862.06
2022-11-13T08:30:25.901Z,99859.56
2022-11-13T08:32:52.828Z,99855.59
2022-11-13T08:35:21.371Z,99853.97
2022-11-13T08:37:50.630Z,99858.66
2022-11-13T08:40:20.022Z,99849.47
2022-11-13T08:42:46.523Z,99846.56
2022-11-13T08:45:13.132Z,99848.34
2022-11-13T08:47:39.659Z,99845.88
2022-11-13T08:50:06.787Z,99855.19
2022-11-13T08:52:33.351Z,99850.63
2022-11-13T08:54:59.879Z,99851.44
2022-11-13T08:57:28.898Z,99843.91
2022-11-13T08:59:55.404Z,99849.72
2022-11-13T09:02:21.924Z,99846.63
2022-11-13T09:04:48.392Z,99840.59
2022-11-13T09:07:15.087Z,99831.50
2022-11-13T09:09:41.563Z,99835.75
2022-11-13T09:12:08.217Z,99824.22
2022-11-13T09:14:36.144Z,99828.63
2022-11-13T09:17:03.035Z,99826.94
2022-11-13T09:19:29.542Z,99825.91
2022-11-13T09:21:56.003Z,99829.75
2022-11-13T09:24:22.539Z,99831.50
2022-11-13T09:26:49.035Z,99834.13
2022-11-13T09:29:15.550Z,99830.81
2022-11-13T09:31:42.247Z,99832.75
2022-11-13T09:34:08.974Z,99826.97
2022-11-13T09:36:36.139Z,99831.47
2022-11-13T09:39:04.345Z,99829.91
2022-11-13T09:41:37.649Z,99822.78
2022-11-13T09:44:13.554Z,99829.38
2022-11-13T09:46:49.354Z,99829.38
2022-11-13T09:49:21.621Z,99824.34
2022-11-13T09:51:52.813Z,99827.84
2022-11-13T09:54:20.318Z,99826.22
2022-11-13T09:56:51.245Z,99827.38
2022-11-13T10:00:10.592Z,99819.03
2022-11-13T10:02:44.404Z,99816.69
2022-11-13T10:05:41.191Z,99814.72
2022-11-13T10:08:16.578Z,99812.19
2022-11-13T10:11:07.072Z,99811.63
2022-11-13T10:13:40.414Z,99806.31
2022-11-13T10:16:38.484Z,99800.28
2022-11-13T10:19:28.252Z,99794.13
2022-11-13T10:22:26.512Z,99794.44
2022-11-13T10:24:52.210Z,99791.00
2022-11-13T10:27:19.014Z,99797.34
2022-11-13T10:29:49.048Z,99777.94
2022-11-13T10:32:22.102Z,99783.34
2022-11-13T10:34:54.285Z,99785.69
2022-11-13T10:37:45.112Z,99785.66
2022-11-13T10:40:11.809Z,99782.94
2022-11-13T10:42:41.225Z,99779.38
2022-11-13T10:45:20.155Z,99777.34
2022-11-13T10:48:04.087Z,99780.75
2022-11-13T10:50:32.528Z,99775.97
2022-11-13T10:53:02.431Z,99767.38
2022-11-13T10:55:37.468Z,99769.31
2022-11-13T10:58:13.091Z,99771.75
2022-11-13T11:00:41.469Z,99761.50
2022-11-13T11:03:14.004Z,99760.00
2022-11-13T11:06:01.091Z,99754.53
2022-11-13T11:08:37.136Z,99756.19
2022-11-13T11:11:33.409Z,99761.44
2022-11-13T11:14:24.361Z,99754.91
2022-11-13T11:16:52.754Z,99749.44
2022-11-13T11:19:24.915Z,99753.03
2022-11-13T11:21:57.349Z,99745.88
2022-11-13T11:24:31.037Z,99742.50
2022-11-13T11:27:04.910Z,99739.16
2022-11-13T11:29:46.324Z,99734.59
2022-11-13T11:32:34.202Z,99727.41
2022-11-13T11:35:12.088Z,99730.13
2022-11-13T11:37:50.396Z,99723.03
2022-11-13T11:40:21.940Z,99721.09
2022-11-13T11:43:00.870Z,99725.22
2022-11-13T11:45:31.583Z,99727.00
2022-11-13T11:47:59.483Z,99726.94
2022-11-13T11:50:54.597Z,99728.44
2022-11-13T11:53:50.329Z,99732.53
2022-11-13T11:56:34.632Z,99739.53
2022-11-13T11:59:22.998Z,99728.97
2022-11-13T12:02:08.178Z,99725.63
2022-11-13T12:05:10.400Z,99722.19
2022-11-13T12:07:48.948Z,99717.75
2022-11-13T12:10:57.040Z,99725.25
2022-11-13T12:13:31.547Z,99719.84
2022-11-13T12:16:13.120Z,99714.19
2022-11-13T12:18:57.646Z,99712.38
2022-11-13T12:22:07.083Z,99717.56
2022-11-13T12:24:39.412Z,99715.00
2022-11-13T12:27:25.765Z,99709.94
2022-11-13T12:30:10.913Z,99702.25
2022-11-13T12:32:43.391Z,99699.78
2022-11-13T12:35:21.039Z,99700.38
2022-11-13T12:37:51.593Z,99691.41
2022-11-13T12:40:50.583Z,99689.88
2022-11-13T12:43:44.735Z,99689.47
2022-11-13T12:46:12.657Z,99692.09
2022-11-13T12:48:45.040Z,99690.28
2022-11-13T12:51:14.609Z,99692.06
2022-11-13T12:53:52.309Z,99690.03
2022-11-13T12:56:24.774Z,99688.25
2022-11-13T12:59:28.652Z,99688.38
2022-11-13T13:01:49.342Z,99688.22
2022-11-13T13:05:13.324Z,99693.06
2022-11-13T13:07:45.900Z,99691.75
2022-11-13T13:10:41.195Z,99675.41
2022-11-13T13:13:31.711Z,99680.94
2022-11-13T13:16:07.349Z,99677.47
2022-11-13T13:18:36.787Z,99677.84
2022-11-13T13:21:04.215Z,99684.66
2022-11-13T13:23:39.791Z,99670.75
2022-11-13T13:26:15.377Z,99666.75
2022-11-13T13:29:01.051Z,99663.81
2022-11-13T13:31:30.430Z,99665.44
2022-11-13T13:34:21.212Z,99654.63
2022-11-13T13:37:01.461Z,99646.75
2022-11-13T13:39:52.282Z,99645.91
2022-11-13T13:42:43.678Z,99638.56
2022-11-13T13:45:25.936Z,99634.41
2022-11-13T13:47:54.887Z,99633.28
2022-11-13T13:50:31.632Z,99633.81
2022-11-13T13:52:59.659Z,99632.28
2022-11-13T13:55:33.960Z,99630.66
2022-11-13T13:58:05.683Z,99631.44
2022-11-13T14:00:32.770Z,99630.75
2022-11-13T14:02:59.342Z,99620.25
2022-11-13T14:05:35.014Z,99628.81
2022-11-13T14:08:07.387Z,99628.66
2022-11-13T14:10:36.273Z,99617.50
2022-11-13T14:13:03.945Z,99613.84
2022-11-13T14:15:32.655Z,99610.66
2022-11-13T14:18:05.426Z,99602.03
2022-11-13T14:20:43.803Z,99594.31
2022-11-13T14:23:23.031Z,99603.81
2022-11-13T14:25:50.256Z,99601.34
2022-11-13T14:28:22.702Z,99610.59
2022-11-13T14:31:07.949Z,99607.28
2022-11-13T14:33:40.694Z,99606.13
2022-11-13T14:36:07.506Z,99601.03
2022-11-13T14:38:36.929Z,99599.44
2022-11-13T14:41:04.480Z,99596.97
2022-11-13T14:43:33.146Z,99606.34
2022-11-13T14:46:02.079Z,99590.28
2022-11-13T14:48:31.380Z,99599.94
2022-11-13T14:51:05.987Z,99603.38
2022-11-13T14:53:35.666Z,99599.06
2022-11-13T14:56:04.862Z,99593.00
2022-11-13T14:58:36.737Z,99595.50
2022-11-13T15:01:15.526Z,99593.94
2022-11-13T15:03:43.766Z,99606.28
2022-11-13T15:06:26.993Z,99597.56
2022-11-13T15:08:58.241Z,99601.84
2022-11-13T15:11:26.500Z,99608.53
2022-11-13T15:13:53.110Z,99615.41
2022-11-13T15:16:23.569Z,99602.13
2022-11-13T15:18:54.216Z,99603.69
2022-11-13T15:21:20.932Z,99596.75
2022-11-13T15:23:47.432Z,99595.84
2022-11-13T15:26:13.950Z,99586.25
2022-11-13T15:28:40.467Z,99586.22
2022-11-13T15:31:20.657Z,99585.41
2022-11-13T15:33:48.046Z,99576.84
2022-11-13T15:36:14.865Z,99586.59
2022-11-13T15:38:41.434Z,99583.13
2022-11-13T15:41:12.806Z,99572.72
2022-11-13T15:43:45.018Z,99582.34
2022-11-13T15:46:17.351Z,99572.50
2022-11-13T15:48:44.971Z,99570.56
2022-11-13T15:51:33.727Z,99559.97
2022-11-13T15:54:03.711Z,99551.81
2022-11-13T15:56:31.485Z,99556.44
2022-11-13T15:58:57.988Z,99548.72
2022-11-13T16:01:24.620Z,99550.34
2022-11-13T16:03:51.707Z,99546.03
2022-11-13T16:06:21.563Z,99542.59
2022-11-13T16:08:48.606Z,99550.28
2022-11-13T16:11:17.009Z,99550.22
2022-11-13T16:13:43.780Z,99540.69
2022-11-13T16:16:16.792Z,99525.22
2022-11-13T16:18:43.293Z,99528.91
2022-11-13T16:21:14.159Z,99537.41
2022-11-13T16:23:40.755Z,99525.13
2022-11-13T16:26:18.035Z,99527.56
2022-11-13T16:29:07.650Z,99535.31
2022-11-13T16:31:31.209Z,99531.31
2022-11-13T16:33:57.640Z,99527.91
2022-11-13T16:36:27.247Z,99525.38
2022-11-13T16:38:53.712Z,99524.44
2022-11-13T16:41:20.218Z,99524.94
2022-11-13T16:43:46.676Z,99516.41
2022-11-13T16:46:21.036Z,99528.00
2022-11-13T16:48:48.014Z,99521.94
2022-11-13T16:51:17.106Z,99514.97
2022-11-13T16:53:43.920Z,99526.53
2022-11-13T16:56:16.274Z,99529.19
2022-11-13T16:58:42.962Z,99523.69
2022-11-13T17:01:19.959Z,99514.84
2022-11-13T17:03:46.516Z,99525.28
2022-11-13T17:06:21.010Z,99527.59
2022-11-13T17:08:51.816Z,99527.72
2022-11-13T17:11:18.889Z,99519.09
2022-11-13T17:14:02.162Z,99524.44
2022-11-13T17:16:30.437Z,99507.94
2022-11-13T17:18:58.133Z,99510.44
2022-11-13T17:21:28.328Z,99522.03
2022-11-13T17:24:02.472Z,99513.97
2022-11-13T17:26:30.975Z,99508.06
2022-11-13T17:28:59.866Z,99511.75
2022-11-13T17:31:26.768Z,99502.41
2022-11-13T17:33:54.094Z,99508.38
2022-11-13T17:36:21.392Z,99502.78
2022-11-13T17:38:48.364Z,99504.56
2022-11-13T17:41:16.496Z,99504.47
2022-11-13T17:43:43.418Z,99500.38
2022-11-13T17:46:15.386Z,99493.88
2022-11-13T17:48:43.109Z,99492.81
2022-11-13T17:51:14.792Z,99487.44
2022-11-13T17:53:41.649Z,99483.22
2022-11-13T17:56:11.663Z,99471.00
2022-11-13T17:58:39.903Z,99470.22
2022-11-13T18:01:10.286Z,99463.00
2022-11-13T18:03:36.901Z,99460.31
2022-11-13T18:06:08.443Z,99461.16
2022-11-13T18:08:37.626Z,99457.84
2022-11-13T18:11:09.622Z,99453.19
2022-11-13T18:13:36.278Z,99443.66
2022-11-13T18:16:10.287Z,99444.75
2022-11-13T18:18:36.947Z,99445.56
2022-11-13T18:21:23.406Z,99448.06
2022-11-13T18:24:03.957Z,99446.44
2022-11-13T18:26:31.644Z,99443.06
2022-11-13T18:28:58.680Z,99439.63
2022-11-13T18:31:25.349Z,99441.16
2022-11-13T18:33:52.760Z,99440.28
2022-11-13T18:36:19.651Z,99437.66
2022-11-13T18:38:46.441Z,99444.69
2022-11-13T18:41:15.757Z,99441.28
2022-11-13T18:43:44.242Z,99435.19
2022-11-13T18:46:12.235Z,99423.00
2022-11-13T18:48:40.404Z,99425.38
2022-11-13T18:51:15.568Z,99432.44
2022-11-13T18:53:45.506Z,99427.25
2022-11-13T18:56:15.575Z,99425.31
2022-11-13T18:58:43.757Z,99426.00
2022-11-13T19:01:22.349Z,99429.34
2022-11-13T19:04:16.150Z,99424.25
2022-11-13T19:06:38.307Z,99419.09
2022-11-13T19:09:08.073Z,99427.16
2022-11-13T19:11:34.564Z,99421.00
2022-11-13T19:14:01.040Z,99415.88
2022-11-13T19:16:33.172Z,99405.34
2022-11-13T19:19:03.579Z,99404.50
2022-11-13T19:21:31.834Z,99402.78
2022-11-13T19:23:58.698Z,99400.22
2022-11-13T19:26:26.129Z,99392.19
2022-11-13T19:28:53.938Z,99385.53
2022-11-13T19:31:22.912Z,99377.25
2022-11-13T19:34:00.544Z,99380.28
2022-11-13T19:36:28.631Z,99376.13
2022-11-13T19:38:56.330Z,99377.78
2022-11-13T19:41:23.930Z,99372.75
2022-11-13T19:43:50.512Z,99364.75
2022-11-13T19:46:18.501Z,99366.50
2022-11-13T19:48:48.611Z,99363.91
2022-11-13T19:51:17.976Z,99369.03
2022-11-13T19:53:47.581Z,99362.56
2022-11-13T19:56:16.389Z,99373.63
2022-11-13T19:58:44.476Z,99370.28
2022-11-13T20:01:13.742Z,99376.41
2022-11-13T20:03:40.380Z,99374.91
2022-11-13T20:06:08.064Z,99364.47
2022-11-13T20:08:41.138Z,99360.66
2022-11-13T20:11:10.972Z,99362.47
2022-11-13T20:13:38.766Z,99358.06
2022-11-13T20:16:06.765Z,99354.66
2022-11-13T20:18:33.320Z,99352.94
2022-11-13T20:21:00.367Z,99343.31
2022-11-13T20:23:30.479Z,99339.78
2022-11-13T20:26:05.300Z,99334.66
2022-11-13T20:28:32.299Z,99330.34
2022-11-13T20:31:16.469Z,99329.56
2022-11-13T20:33:43.569Z,99326.00
2022-11-13T20:36:10.457Z,99324.19
2022-11-13T20:38:37.435Z,99326.88
2022-11-13T20:41:05.045Z,99325.19
2022-11-13T20:43:31.534Z,99325.13
2022-11-13T20:46:09.201Z,99318.09
2022-11-13T20:48:36.284Z,99324.47
2022-11-13T20:51:10.868Z,99312.94
2022-11-13T20:53:37.593Z,99323.88
2022-11-13T20:56:04.552Z,99308.63
2022-11-13T20:58:31.789Z,99310.75
2022-11-13T21:01:07.001Z,99307.13
2022-11-13T21:03:39.901Z,99309.22
2022-11-13T21:06:10.004Z,99306.97
2022-11-13T21:08:36.614Z,99306.25
2022-11-13T21:11:06.015Z,99310.63
2022-11-13T21:13:33.249Z,99296.66
2022-11-13T21:15:59.787Z,99293.34
2022-11-13T21:18:26.596Z,99291.75
2022-11-13T21:20:53.332Z,99291.88
2022-11-13T21:23:19.833Z,99296.19
2022-11-13T21:25:46.358Z,99290.94
2022-11-13T21:28:12.849Z,99284.03
2022-11-13T21:30:39.315Z,99283.22
2022-11-13T21:33:05.796Z,99281.66
2022-11-13T21:35:32.324Z,99279.91
2022-11-13T21:37:58.892Z,99280.72
2022-11-13T21:40:25.363Z,99274.63
2022-11-13T21:42:51.871Z,99272.00
2022-11-13T21:45:18.341Z,99269.56
2022-11-13T21:47:44.854Z,99273.94
2022-11-13T21:50:11.384Z,99273.94
2022-11-13T21:52:37.912Z,99268.72
2022-11-13T21:55:04.696Z,99265.41
2022-11-13T21:57:31.377Z,99267.19
2022-11-13T21:59:57.863Z,99262.00
2022-11-13T22:02:24.464Z,99269.16
2022-11-13T22:04:50.991Z,99258.78
2022-11-13T22:07:19.433Z,99257.91
2022-11-13T22:09:46.462Z,99255.28
2022-11-13T22:12:18.009Z,99252.63
2022-11-13T22:14:47.428Z,99251.81
2022-11-13T22:17:13.866Z,99244.72
2022-11-13T22:19:40.429Z,99238.47
2022-11-13T22:22:06.907Z,99232.91
2022-11-13T22:24:33.458Z,99235.53
2022-11-13T22:27:02.872Z,99234.00
2022-11-13T22:29:29.380Z,99242.94
2022-11-13T22:31:55.845Z,99233.41
2022-11-13T22:34:22.346Z,99232.69
2022-11-13T22:36:48.807Z,99227.53
2022-11-13T22:39:15.385Z,99221.34
2022-11-13T22:41:41.828Z,99223.75
2022-11-13T22:44:12.462Z,99222.66
2022-11-13T22:46:39.110Z,99227.13
2022-11-13T22:49:09.308Z,99219.31
2022-11-13T22:51:38.464Z,99221.03
2022-11-13T22:54:14.921Z,99218.25
2022-11-13T22:56:44.291Z,99213.09
2022-11-13T22:59:12.281Z,99209.38
2022-11-13T23:01:40.281Z,99206.13
2022-11-13T23:04:12.010Z,99213.94
2022-11-13T23:06:38.616Z,99210.00
2022-11-13T23:09:06.448Z,99204.59
2022-11-13T23:11:40.313Z,99199.13
2022-11-13T23:14:13.719Z,99194.75
2022-11-13T23:16:40.282Z,99201.97
2022-11-13T23:19:06.981Z,99199.44
2022-11-13T23:21:33.678Z,99197.69
2022-11-13T23:24:03.763Z,99192.41
2022-11-13T23:26:30.318Z,99188.84
2022-11-13T23:28:57.182Z,99182.47
2022-11-13T23:31:24.386Z,99189.66
2022-11-13T23:33:58.280Z,99182.63
2022-11-13T23:36:24.814Z,99180.72
2022-11-13T23:38:51.267Z,99185.97
2022-11-13T23:41:17.768Z,99186.00
2022-11-13T23:46:30.683Z,99189.16
2022-11-13T23:48:57.255Z,99181.44
2022-11-13T23:51:23.747Z,99176.97
2022-11-13T23:53:50.183Z,99174.19
2022-11-13T23:56:18.603Z,99168.78
2022-11-13T23:58:45.081Z,99169.72
